createdAt,value
2022-08-19T00:01:40.480Z,3.00
2022-08-19T00:04:09.189Z,3.50
2022-08-19T00:06:36.800Z,3.20
2022-08-19T00:09:04.394Z,3.15
2022-08-19T00:11:31.112Z,3.50
2022-08-19T00:13:57.658Z,3.17
2022-08-19T00:16:26.784Z,2.90
2022-08-19T00:18:54.557Z,3.20
2022-08-19T00:21:21.067Z,3.58
2022-08-19T00:23:47.602Z,2.90
2022-08-19T00:26:14.292Z,3.17
2022-08-19T00:28:40.778Z,3.08
2022-08-19T00:31:07.967Z,3.05
2022-08-19T00:33:34.589Z,2.97
2022-08-19T00:36:07.190Z,3.33
2022-08-19T00:38:37.835Z,3.38
2022-08-19T00:41:06.013Z,3.28
2022-08-19T00:43:32.770Z,3.25
2022-08-19T00:45:59.453Z,3.45
2022-08-19T00:48:26.124Z,3.45
2022-08-19T00:50:54.233Z,3.17
2022-08-19T00:53:22.689Z,3.58
2022-08-19T00:55:51.384Z,3.20
2022-08-19T00:58:20.138Z,3.17
2022-08-19T01:00:47.412Z,3.33
2022-08-19T01:03:16.044Z,3.28
2022-08-19T01:05:46.577Z,3.15
2022-08-19T01:08:14.596Z,2.80
2022-08-19T01:10:53.213Z,2.97
2022-08-19T01:13:21.300Z,3.10
2022-08-19T01:15:50.010Z,2.78
2022-08-19T01:18:17.652Z,3.17
2022-08-19T01:20:44.601Z,3.20
2022-08-19T01:23:11.525Z,3.25
2022-08-19T01:25:42.027Z,3.05
2022-08-19T01:28:10.832Z,3.05
2022-08-19T01:30:37.662Z,3.00
2022-08-19T01:33:06.208Z,3.28
2022-08-19T01:35:33.262Z,3.42
2022-08-19T01:38:11.122Z,2.63
2022-08-19T01:40:40.402Z,3.17
2022-08-19T01:43:07.072Z,3.53
2022-08-19T01:45:34.467Z,3.00
2022-08-19T01:48:02.114Z,3.17
2022-08-19T01:50:29.769Z,3.22
2022-08-19T01:53:06.023Z,2.80
2022-08-19T01:55:35.096Z,2.80
2022-08-19T01:58:03.129Z,3.00
2022-08-19T02:00:30.993Z,2.70
2022-08-19T02:02:57.725Z,2.85
2022-08-19T02:05:24.309Z,2.95
2022-08-19T02:07:50.907Z,3.22
2022-08-19T02:10:20.553Z,2.70
2022-08-19T02:12:47.664Z,2.60
2022-08-19T02:15:14.716Z,2.63
2022-08-19T02:17:41.670Z,2.90
2022-08-19T02:20:08.777Z,2.75
2022-08-19T02:22:36.347Z,2.60
2022-08-19T02:25:03.032Z,2.97
2022-08-19T02:27:29.470Z,2.67
2022-08-19T02:29:55.932Z,2.80
2022-08-19T02:32:22.559Z,2.63
2022-08-19T02:34:49.013Z,2.50
2022-08-19T02:37:35.123Z,2.97
2022-08-19T02:40:02.514Z,2.78
2022-08-19T02:42:30.014Z,3.08
2022-08-19T02:44:56.914Z,2.58
2022-08-19T02:47:23.384Z,2.80
2022-08-19T02:49:50.907Z,2.75
2022-08-19T02:52:17.497Z,2.28
2022-08-19T02:54:44.796Z,2.60
2022-08-19T02:57:11.335Z,2.60
2022-08-19T02:59:37.786Z,2.55
2022-08-19T03:02:04.299Z,2.45
2022-08-19T03:04:30.808Z,2.70
2022-08-19T03:07:02.559Z,2.70
2022-08-19T03:09:38.252Z,2.47
2022-08-19T03:12:05.077Z,2.50
2022-08-19T03:14:32.106Z,2.47
2022-08-19T03:16:58.641Z,2.35
2022-08-19T03:19:25.296Z,2.47
2022-08-19T03:21:52.497Z,2.40
2022-08-19T03:24:19.904Z,2.45
2022-08-19T03:26:48.733Z,2.33
2022-08-19T03:29:15.841Z,2.30
2022-08-19T03:31:56.009Z,2.70
2022-08-19T03:34:27.555Z,2.40
2022-08-19T03:39:22.435Z,2.08
2022-08-19T03:42:32.362Z,2.20
2022-08-19T03:44:38.802Z,2.47
2022-08-19T03:47:06.295Z,2.53
2022-08-19T03:49:34.498Z,2.40
2022-08-19T03:52:06.053Z,2.20
2022-08-19T03:56:58.976Z,2.15
2022-08-19T03:59:27.417Z,2.45
2022-08-19T04:01:55.103Z,1.98
2022-08-19T04:04:22.603Z,2.40
2022-08-19T04:06:49.332Z,2.38
2022-08-19T04:09:16.479Z,2.03
2022-08-19T04:11:51.255Z,1.92
2022-08-19T04:14:21.883Z,2.50
2022-08-19T04:16:49.263Z,1.90
2022-08-19T04:19:17.493Z,2.00
2022-08-19T04:21:45.065Z,2.05
2022-08-19T04:24:11.997Z,2.05
2022-08-19T04:26:38.956Z,2.17
2022-08-19T04:29:13.295Z,1.92
2022-08-19T04:31:40.587Z,2.05
2022-08-19T04:34:08.229Z,1.98
2022-08-19T04:36:35.939Z,1.70
2022-08-19T04:39:07.042Z,2.00
2022-08-19T04:41:52.161Z,2.00
2022-08-19T04:44:19.154Z,1.80
2022-08-19T04:46:50.928Z,2.10
2022-08-19T04:49:19.259Z,1.90
2022-08-19T04:51:48.215Z,1.70
2022-08-19T04:54:15.871Z,1.77
2022-08-19T04:56:57.493Z,1.85
2022-08-19T04:59:24.007Z,1.70
2022-08-19T05:01:51.031Z,1.95
2022-08-19T05:04:21.470Z,1.85
2022-08-19T05:06:49.340Z,2.50
2022-08-19T05:09:16.782Z,2.35
2022-08-19T05:11:43.398Z,2.08
2022-08-19T05:14:10.711Z,2.20
2022-08-19T05:16:37.122Z,2.00
2022-08-19T05:19:22.011Z,1.95
2022-08-19T05:22:06.990Z,2.05
2022-08-19T05:24:35.210Z,2.42
2022-08-19T05:27:03.561Z,2.13
2022-08-19T05:29:33.488Z,2.40
2022-08-19T05:32:05.950Z,2.30
2022-08-19T05:34:33.881Z,2.47
2022-08-19T05:37:02.004Z,2.25
2022-08-19T05:39:29.535Z,2.50
2022-08-19T05:41:58.110Z,2.13
2022-08-19T05:44:25.304Z,2.50
2022-08-19T05:46:54.773Z,2.10
2022-08-19T05:49:22.850Z,2.65
2022-08-19T05:51:49.576Z,2.72
2022-08-19T05:54:16.050Z,2.50
2022-08-19T05:56:43.317Z,2.85
2022-08-19T05:59:12.211Z,2.53
2022-08-19T06:01:39.935Z,2.70
2022-08-19T06:04:07.442Z,2.60
2022-08-19T06:06:35.232Z,2.92
2022-08-19T06:09:05.910Z,3.20
2022-08-19T06:12:00.475Z,2.90
2022-08-19T06:14:28.604Z,3.25
2022-08-19T06:16:55.135Z,3.20
2022-08-19T06:19:23.310Z,3.28
2022-08-19T06:21:51.628Z,3.50
2022-08-19T06:24:19.491Z,3.60
2022-08-19T06:29:23.709Z,3.47
2022-08-19T06:31:53.010Z,3.35
2022-08-19T06:34:20.221Z,3.63
2022-08-19T06:36:48.284Z,3.72
2022-08-19T06:39:16.831Z,3.33
2022-08-19T06:41:49.328Z,3.75
2022-08-19T06:44:22.548Z,4.10
2022-08-19T06:46:54.882Z,3.83
2022-08-19T06:49:21.869Z,4.28
2022-08-19T06:51:49.538Z,3.42
2022-08-19T06:54:19.484Z,3.42
2022-08-19T06:56:46.826Z,3.60
2022-08-19T06:59:15.026Z,4.38
2022-08-19T07:01:42.994Z,4.07
2022-08-19T07:04:11.976Z,4.20
2022-08-19T07:06:43.325Z,4.40
2022-08-19T07:09:11.501Z,3.85
2022-08-19T07:11:38.768Z,4.07
2022-08-19T07:14:07.511Z,4.00
2022-08-19T07:16:46.767Z,4.30
2022-08-19T07:19:16.150Z,4.75
2022-08-19T07:21:45.228Z,4.20
2022-08-19T07:24:12.016Z,3.80
2022-08-19T07:26:40.146Z,3.33
2022-08-19T07:29:09.244Z,5.13
2022-08-19T07:31:37.649Z,4.50
2022-08-19T07:34:07.967Z,4.72
2022-08-19T07:36:36.022Z,5.15
2022-08-19T07:39:05.207Z,4.70
2022-08-19T07:41:32.342Z,4.90
2022-08-19T07:44:00.146Z,4.40
2022-08-19T07:46:31.331Z,4.60
2022-08-19T07:48:58.046Z,4.50
2022-08-19T07:51:36.135Z,5.22
2022-08-19T07:54:03.469Z,4.72
2022-08-19T07:56:29.990Z,4.50
2022-08-19T08:04:14.394Z,4.40
2022-08-19T08:06:59.695Z,4.38
2022-08-19T08:09:28.596Z,4.28
2022-08-19T08:12:01.925Z,3.95
2022-08-19T08:14:34.991Z,4.30
2022-08-19T08:17:02.192Z,4.10
2022-08-19T08:19:29.386Z,4.22
2022-08-19T08:21:58.003Z,4.03
2022-08-19T08:24:28.545Z,4.28
2022-08-19T08:26:57.134Z,4.22
2022-08-19T08:29:24.573Z,3.70
2022-08-19T08:31:58.600Z,4.55
2022-08-19T08:34:26.461Z,3.28
2022-08-19T08:36:53.131Z,4.22
2022-08-19T08:39:20.657Z,3.50
2022-08-19T08:42:10.326Z,3.95
2022-08-19T08:45:12.708Z,4.00
2022-08-19T08:47:42.038Z,3.88
2022-08-19T08:50:41.101Z,3.53
2022-08-19T08:53:09.355Z,3.58
2022-08-19T08:55:36.753Z,3.10
2022-08-19T08:58:03.758Z,3.40
2022-08-19T09:00:41.567Z,3.15
2022-08-19T09:03:18.059Z,3.05
2022-08-19T09:06:05.044Z,3.58
2022-08-19T09:08:38.552Z,3.47
2022-08-19T09:11:07.665Z,2.92
2022-08-19T09:13:37.422Z,3.20
2022-08-19T09:16:13.264Z,3.28
2022-08-19T09:18:48.106Z,3.28
2022-08-19T09:21:15.939Z,3.20
2022-08-19T09:23:44.678Z,3.30
2022-08-19T09:26:14.578Z,3.33
2022-08-19T09:28:44.574Z,3.10
2022-08-19T09:31:16.314Z,3.00
2022-08-19T09:33:44.726Z,3.10
2022-08-19T09:36:12.460Z,3.20
2022-08-19T09:38:48.215Z,2.92
2022-08-19T09:41:16.806Z,3.15
2022-08-19T09:43:48.694Z,3.30
2022-08-19T09:46:18.357Z,3.03
2022-08-19T09:48:45.635Z,3.30
2022-08-19T09:51:16.613Z,3.05
2022-08-19T09:53:44.349Z,3.00
2022-08-19T09:56:11.510Z,2.95
2022-08-19T09:58:38.805Z,2.72
2022-08-19T10:01:06.257Z,2.47
2022-08-19T10:03:33.231Z,3.10
2022-08-19T10:06:00.974Z,2.63
2022-08-19T10:08:29.637Z,2.88
2022-08-19T10:10:56.615Z,2.97
2022-08-19T10:13:27.841Z,3.00
2022-08-19T10:15:55.702Z,3.35
2022-08-19T10:18:22.645Z,3.47
2022-08-19T10:20:51.565Z,2.83
2022-08-19T10:23:19.196Z,2.67
2022-08-19T10:25:45.765Z,2.97
2022-08-19T10:28:14.781Z,2.95
2022-08-19T10:30:41.675Z,2.80
2022-08-19T10:33:11.256Z,2.75
2022-08-19T10:35:42.609Z,2.78
2022-08-19T10:38:31.394Z,2.80
2022-08-19T10:40:58.790Z,2.78
2022-08-19T10:43:25.975Z,2.58
2022-08-19T10:46:00.308Z,2.90
2022-08-19T10:48:26.747Z,2.70
2022-08-19T10:51:12.385Z,2.90
2022-08-19T10:53:49.446Z,2.97
2022-08-19T10:56:34.411Z,2.70
2022-08-19T10:59:01.122Z,3.03
2022-08-19T11:01:28.161Z,3.05
2022-08-19T11:03:54.638Z,2.70
2022-08-19T11:06:21.923Z,3.03
2022-08-19T11:08:48.492Z,2.70
2022-08-19T11:11:15.010Z,2.58
2022-08-19T11:13:42.207Z,2.53
2022-08-19T11:16:10.401Z,2.65
2022-08-19T11:18:38.021Z,2.72
2022-08-19T11:21:08.674Z,2.50
2022-08-19T11:23:35.148Z,3.30
2022-08-19T11:26:02.394Z,2.53
2022-08-19T11:28:29.556Z,2.38
2022-08-19T11:30:56.060Z,2.50
2022-08-19T11:33:22.538Z,2.03
2022-08-19T11:35:50.387Z,2.53
2022-08-19T11:38:16.875Z,2.25
2022-08-19T11:40:43.461Z,2.30
2022-08-19T11:43:10.582Z,2.20
2022-08-19T11:45:37.782Z,2.33
2022-08-19T11:48:04.570Z,2.30
2022-08-19T11:50:30.993Z,2.20
2022-08-19T11:52:57.837Z,2.10
2022-08-19T11:55:24.578Z,2.65
2022-08-19T11:57:51.036Z,2.38
2022-08-19T12:00:17.495Z,2.05
2022-08-19T12:02:44.144Z,2.13
2022-08-19T12:05:12.955Z,2.60
2022-08-19T12:07:42.411Z,2.28
2022-08-19T12:10:09.151Z,2.35
2022-08-19T12:12:41.405Z,2.28
2022-08-19T12:15:08.339Z,2.08
2022-08-19T12:17:34.820Z,2.63
2022-08-19T12:20:01.324Z,2.40
2022-08-19T12:22:29.074Z,2.20
2022-08-19T12:24:55.950Z,2.13
2022-08-19T12:27:35.723Z,2.42
2022-08-19T12:30:09.874Z,2.30
2022-08-19T12:32:36.416Z,1.88
2022-08-19T12:35:02.851Z,2.17
2022-08-19T12:37:29.338Z,1.98
2022-08-19T12:39:55.835Z,2.10
2022-08-19T12:42:23.611Z,2.10
2022-08-19T12:44:50.071Z,2.00
2022-08-19T12:47:18.063Z,1.67
2022-08-19T12:49:53.187Z,1.90
2022-08-19T12:52:23.611Z,1.80
2022-08-19T12:54:54.034Z,1.90
2022-08-19T12:57:22.032Z,6.82
2022-08-19T12:59:54.121Z,1.85
2022-08-19T13:02:20.853Z,1.90
2022-08-19T13:04:47.659Z,1.85
2022-08-19T13:07:14.158Z,1.70
2022-08-19T13:09:43.524Z,1.50
2022-08-19T13:12:13.996Z,1.70
2022-08-19T13:14:41.417Z,1.53
2022-08-19T13:17:09.311Z,1.77
2022-08-19T13:19:37.519Z,1.50
2022-08-19T13:22:03.970Z,1.67
2022-08-19T13:24:33.758Z,1.55
2022-08-19T13:27:01.178Z,1.50
2022-08-19T13:29:46.416Z,2.33
2022-08-19T13:32:31.594Z,1.85
2022-08-19T13:34:58.184Z,1.50
2022-08-19T13:37:42.148Z,1.33
2022-08-19T13:40:13.900Z,1.60
2022-08-19T13:42:40.828Z,1.52
2022-08-19T13:45:07.891Z,1.40
2022-08-19T13:47:43.196Z,1.65
2022-08-19T13:50:10.796Z,1.45
2022-08-19T13:52:37.557Z,1.40
2022-08-19T13:55:05.481Z,1.63
2022-08-19T13:57:31.970Z,1.50
2022-08-19T13:59:59.072Z,1.30
2022-08-19T14:02:27.208Z,1.40
2022-08-19T14:04:54.102Z,1.73
2022-08-19T14:07:20.590Z,1.40
2022-08-19T14:09:47.580Z,1.20
2022-08-19T14:12:19.128Z,1.30
2022-08-19T14:14:55.315Z,1.30
2022-08-19T14:17:22.495Z,1.33
2022-08-19T14:19:49.120Z,1.30
2022-08-19T14:22:15.626Z,1.02
2022-08-19T14:24:53.177Z,1.45
2022-08-19T14:27:19.833Z,1.52
2022-08-19T14:29:46.829Z,1.42
2022-08-19T14:32:16.909Z,1.30
2022-08-19T14:34:43.475Z,1.33
2022-08-19T14:37:14.338Z,1.27
2022-08-19T14:39:43.971Z,1.00
2022-08-19T14:42:11.571Z,1.58
2022-08-19T14:44:38.198Z,1.10
2022-08-19T14:47:04.708Z,1.05
2022-08-19T14:49:35.256Z,1.25
2022-08-19T14:52:08.128Z,1.10
2022-08-19T14:54:34.577Z,1.30
2022-08-19T14:57:01.060Z,0.90
2022-08-19T14:59:27.698Z,1.00
2022-08-19T15:01:54.204Z,1.00
2022-08-19T15:04:21.164Z,1.13
2022-08-19T15:06:47.758Z,1.13
2022-08-19T15:09:14.338Z,0.82
2022-08-19T15:11:40.839Z,0.85
2022-08-19T15:14:07.991Z,1.20
2022-08-19T15:16:34.721Z,1.10
2022-08-19T15:19:01.631Z,1.38
2022-08-19T15:21:30.393Z,1.25
2022-08-19T15:23:57.923Z,0.98
2022-08-19T15:26:27.984Z,0.98
2022-08-19T15:28:54.815Z,1.05
2022-08-19T15:31:25.221Z,1.02
2022-08-19T15:33:58.843Z,0.70
2022-08-19T15:36:27.208Z,1.30
2022-08-19T15:38:53.958Z,0.95
2022-08-19T15:41:25.233Z,0.90
2022-08-19T15:46:19.442Z,1.00
2022-08-19T15:48:55.926Z,1.10
2022-08-19T15:51:24.228Z,1.40
2022-08-19T15:53:51.247Z,0.70
2022-08-19T15:56:17.817Z,0.80
2022-08-19T15:59:03.108Z,0.85
2022-08-19T16:01:48.031Z,1.00
2022-08-19T16:04:34.530Z,1.00
2022-08-19T16:07:02.009Z,0.95
2022-08-19T16:09:30.053Z,0.90
2022-08-19T16:12:01.699Z,0.80
2022-08-19T16:14:29.587Z,1.10
2022-08-19T16:16:57.090Z,1.00
2022-08-19T16:19:24.512Z,0.88
2022-08-19T16:21:52.599Z,1.00
2022-08-19T16:24:20.588Z,1.02
2022-08-19T16:26:48.271Z,0.90
2022-08-19T16:29:22.097Z,0.80
2022-08-19T16:32:02.824Z,1.02
2022-08-19T16:34:30.191Z,1.45
2022-08-19T16:36:56.693Z,1.35
2022-08-19T16:39:23.788Z,1.45
2022-08-19T16:41:51.665Z,1.30
2022-08-19T16:44:21.213Z,1.00
2022-08-19T16:46:50.698Z,1.77
2022-08-19T16:49:53.358Z,1.30
2022-08-19T16:52:13.115Z,1.50
2022-08-19T16:54:41.853Z,1.63
2022-08-19T16:57:11.923Z,1.63
2022-08-19T16:59:39.561Z,1.50
2022-08-19T17:02:15.116Z,1.48
2022-08-19T17:04:41.816Z,1.65
2022-08-19T17:07:09.915Z,1.52
2022-08-19T17:09:36.673Z,1.60
2022-08-19T17:12:04.599Z,1.50
2022-08-19T17:14:31.075Z,1.35
2022-08-19T17:16:57.576Z,1.55
2022-08-19T17:19:24.090Z,1.30
2022-08-19T17:21:50.778Z,1.42
2022-08-19T17:24:17.234Z,1.50
2022-08-19T17:26:43.996Z,1.80
2022-08-19T17:29:10.501Z,1.70
2022-08-19T17:31:37.021Z,1.70
2022-08-19T17:34:04.516Z,1.73
2022-08-19T17:36:31.887Z,1.80
2022-08-19T17:39:00.601Z,1.80
2022-08-19T17:41:27.975Z,1.90
2022-08-19T17:43:54.744Z,1.80
2022-08-19T17:46:21.511Z,2.10
2022-08-19T17:48:52.696Z,2.03
2022-08-19T17:51:24.584Z,2.25
2022-08-19T17:53:51.917Z,1.98
2022-08-19T17:56:18.658Z,2.28
2022-08-19T17:58:52.026Z,2.67
2022-08-19T18:01:31.415Z,2.72
2022-08-19T18:04:10.695Z,2.10
2022-08-19T18:06:37.258Z,2.80
2022-08-19T18:09:05.355Z,2.45
2022-08-19T18:11:31.882Z,2.50
2022-08-19T18:13:58.505Z,2.90
2022-08-19T18:16:25.216Z,2.72
2022-08-19T18:18:54.494Z,2.60
2022-08-19T18:21:21.061Z,2.70
2022-08-19T18:23:47.666Z,2.78
2022-08-19T18:26:14.917Z,2.72
2022-08-19T18:28:49.780Z,3.20
2022-08-19T18:31:17.236Z,2.30
2022-08-19T18:33:44.682Z,2.80
2022-08-19T18:36:11.240Z,3.20
2022-08-19T18:38:56.516Z,2.92
2022-08-19T18:41:41.566Z,2.63
2022-08-19T18:44:28.340Z,3.25
2022-08-19T18:47:13.662Z,2.90
2022-08-19T18:49:40.577Z,3.22
2022-08-19T18:52:07.139Z,2.80
2022-08-19T18:54:34.458Z,2.97
2022-08-19T18:57:01.453Z,2.97
2022-08-19T18:59:30.238Z,3.33
2022-08-19T19:01:58.442Z,3.47
2022-08-19T19:04:26.305Z,2.92
2022-08-19T19:06:52.786Z,3.80
2022-08-19T19:09:21.097Z,3.72
2022-08-19T19:11:49.011Z,3.55
2022-08-19T19:14:32.803Z,4.07
2022-08-19T19:17:05.160Z,4.57
2022-08-19T19:19:32.249Z,4.50
2022-08-19T19:21:59.221Z,4.57
2022-08-19T19:24:29.581Z,5.13
2022-08-19T19:26:56.906Z,5.05
2022-08-19T19:29:23.528Z,5.18
2022-08-19T19:31:54.038Z,5.60
2022-08-19T19:34:28.915Z,5.60
2022-08-19T19:36:56.603Z,6.00
2022-08-19T19:39:30.529Z,5.90
2022-08-19T19:42:19.711Z,6.13
2022-08-19T19:44:48.839Z,6.57
2022-08-19T19:47:16.144Z,5.97
2022-08-19T19:50:03.801Z,6.07
2022-08-19T19:52:29.696Z,6.80
2022-08-19T19:54:56.940Z,6.03
2022-08-19T19:57:23.791Z,6.60
2022-08-19T19:59:51.423Z,6.47
2022-08-19T20:02:18.331Z,6.68
2022-08-19T20:04:45.081Z,6.00
2022-08-19T20:07:11.561Z,6.00
2022-08-19T20:09:58.201Z,6.00
2022-08-19T20:12:24.488Z,5.88
2022-08-19T20:14:50.941Z,7.10
2022-08-19T20:17:17.632Z,6.30
2022-08-19T20:19:44.660Z,7.00
2022-08-19T20:22:13.987Z,6.85
2022-08-19T20:24:42.519Z,6.68
2022-08-19T20:27:10.670Z,6.00
2022-08-19T20:29:41.517Z,5.60
2022-08-19T20:32:10.830Z,5.80
2022-08-19T20:34:37.623Z,5.72
2022-08-19T20:37:04.106Z,5.55
2022-08-19T20:39:30.872Z,5.07
2022-08-19T20:41:57.366Z,5.03
2022-08-19T20:44:25.603Z,5.38
2022-08-19T20:46:54.204Z,5.32
2022-08-19T20:49:23.107Z,4.68
2022-08-19T20:51:54.620Z,4.63
2022-08-19T20:54:21.177Z,5.25
2022-08-19T20:56:47.629Z,4.47
2022-08-19T20:59:14.106Z,4.53
2022-08-19T21:01:40.583Z,4.40
2022-08-19T21:04:07.052Z,4.95
2022-08-19T21:06:34.154Z,4.35
2022-08-19T21:09:00.671Z,4.50
2022-08-19T21:11:27.166Z,4.25
2022-08-19T21:13:53.910Z,4.30
2022-08-19T21:16:20.345Z,4.80
2022-08-19T21:18:46.793Z,4.65
2022-08-19T21:21:13.286Z,4.07
2022-08-19T21:23:39.912Z,4.18
2022-08-19T21:26:06.455Z,4.50
2022-08-19T21:28:36.372Z,4.32
2022-08-19T21:31:04.256Z,3.85
2022-08-19T21:33:32.116Z,3.88
2022-08-19T21:35:59.374Z,3.90
2022-08-19T21:38:25.948Z,4.07
2022-08-19T21:40:52.446Z,3.42
2022-08-19T21:43:18.997Z,4.00
2022-08-19T21:45:46.178Z,3.92
2022-08-19T21:48:14.639Z,3.60
2022-08-19T21:50:41.724Z,3.75
2022-08-19T21:53:08.148Z,3.70
2022-08-19T21:55:38.386Z,3.90
2022-08-19T21:58:04.997Z,3.65
2022-08-19T22:00:32.303Z,3.25
2022-08-19T22:02:59.211Z,3.33
2022-08-19T22:05:26.516Z,3.00
2022-08-19T22:07:54.298Z,3.35
2022-08-19T22:10:22.220Z,3.15
2022-08-19T22:12:51.639Z,3.20
2022-08-19T22:15:21.271Z,3.20
2022-08-19T22:17:47.806Z,2.70
2022-08-19T22:20:19.417Z,3.17
2022-08-19T22:22:47.448Z,3.00
2022-08-19T22:25:31.168Z,2.80
2022-08-19T22:28:00.402Z,2.88
2022-08-19T22:30:30.956Z,2.88
2022-08-19T22:33:01.400Z,2.80
2022-08-19T22:35:31.419Z,3.05
2022-08-19T22:38:00.815Z,2.95
2022-08-19T22:40:28.322Z,2.67
2022-08-19T22:43:02.201Z,2.92
2022-08-19T22:45:29.457Z,2.72
2022-08-19T22:47:56.552Z,2.60
2022-08-19T22:50:23.688Z,2.60
2022-08-19T22:52:54.872Z,2.47
2022-08-19T22:55:21.339Z,2.45
2022-08-19T22:57:47.952Z,2.65
2022-08-19T23:00:15.068Z,2.58
2022-08-19T23:02:51.627Z,2.10
2022-08-19T23:05:22.021Z,2.75
2022-08-19T23:07:52.479Z,2.38
2022-08-19T23:10:27.235Z,2.25
2022-08-19T23:12:54.983Z,2.30
2022-08-19T23:15:24.352Z,2.58
2022-08-19T23:17:51.834Z,2.30
2022-08-19T23:20:18.500Z,2.40
2022-08-19T23:22:48.590Z,2.30
2022-08-19T23:25:16.857Z,2.35
2022-08-19T23:28:02.750Z,2.35
2022-08-19T23:30:30.129Z,2.45
2022-08-19T23:32:58.328Z,2.00
2022-08-19T23:35:27.614Z,2.28
2022-08-19T23:37:54.488Z,1.90
2022-08-19T23:40:21.955Z,2.15
2022-08-19T23:42:49.390Z,2.33
2022-08-19T23:45:16.505Z,2.33
2022-08-19T23:47:50.482Z,2.30
2022-08-19T23:50:16.956Z,1.92
2022-08-19T23:52:48.622Z,2.33
2022-08-19T23:55:15.957Z,1.80
2022-08-19T23:57:42.470Z,2.03
